createdAt,value
2019-02-08T00:01:45.118Z,4.10
2019-02-08T00:04:17.326Z,3.73
2019-02-08T00:06:47.135Z,3.50
2019-02-08T00:09:16.293Z,4.23
2019-02-08T00:11:46.758Z,3.93
2019-02-08T00:14:15.817Z,4.20
2019-02-08T00:16:44.785Z,3.80
2019-02-08T00:19:13.739Z,4.07
2019-02-08T00:21:42.774Z,3.40
2019-02-08T00:24:11.778Z,3.40
2019-02-08T00:26:40.749Z,3.80
2019-02-08T00:29:09.937Z,3.70
2019-02-08T00:31:38.854Z,3.93
2019-02-08T00:34:07.871Z,3.47
2019-02-08T00:36:36.847Z,3.77
2019-02-08T00:39:10.705Z,3.53
2019-02-08T00:45:17.086Z,3.83
2019-02-08T00:47:47.702Z,4.27
2019-02-08T00:50:18.619Z,3.47
2019-02-08T00:52:48.559Z,3.60
2019-02-08T00:55:17.931Z,4.10
2019-02-08T00:57:46.925Z,3.10
2019-02-08T01:00:17.364Z,3.63
2019-02-08T01:02:46.874Z,2.87
2019-02-08T01:05:57.550Z,3.37
2019-02-08T01:08:26.775Z,2.20
2019-02-08T01:10:55.773Z,3.27
2019-02-08T01:13:25.176Z,3.60
2019-02-08T01:15:54.142Z,3.30
2019-02-08T01:18:23.728Z,3.10
2019-02-08T01:20:52.674Z,3.00
2019-02-08T01:23:22.804Z,3.23
2019-02-08T01:25:52.175Z,2.73
2019-02-08T01:28:21.382Z,3.27
2019-02-08T01:30:50.329Z,3.13
2019-02-08T01:33:19.223Z,3.90
2019-02-08T01:35:48.198Z,2.50
2019-02-08T01:38:20.580Z,3.33
2019-02-08T01:40:49.956Z,3.53
2019-02-08T01:43:46.283Z,3.97
2019-02-08T01:46:15.289Z,3.20
2019-02-08T01:48:44.514Z,3.30
2019-02-08T01:51:13.523Z,3.23
2019-02-08T01:53:48.595Z,3.60
2019-02-08T01:56:13.720Z,3.40
2019-02-08T01:58:42.754Z,3.10
2019-02-08T02:01:11.970Z,3.47
2019-02-08T02:03:41.265Z,3.50
2019-02-08T02:06:43.648Z,3.83
2019-02-08T02:09:12.637Z,3.53
2019-02-08T02:11:41.649Z,3.80
2019-02-08T02:14:11.228Z,3.70
2019-02-08T02:16:41.420Z,4.37
2019-02-08T02:19:11.047Z,3.90
2019-02-08T02:24:15.188Z,4.20
2019-02-08T02:26:44.018Z,3.60
2019-02-08T02:29:13.029Z,3.50
2019-02-08T02:31:41.950Z,3.53
2019-02-08T02:34:10.865Z,4.13
2019-02-08T02:36:39.770Z,3.37
2019-02-08T02:39:09.891Z,3.90
2019-02-08T02:41:38.788Z,3.50
2019-02-08T02:44:09.346Z,4.07
2019-02-08T02:46:38.545Z,3.53
2019-02-08T02:49:07.939Z,3.10
2019-02-08T02:51:36.859Z,3.80
2019-02-08T02:54:06.321Z,4.30
2019-02-08T02:56:35.249Z,4.60
2019-02-08T02:59:04.469Z,4.47
2019-02-08T03:05:15.027Z,4.63
2019-02-08T03:07:44.009Z,4.07
2019-02-08T03:10:14.512Z,4.47
2019-02-08T03:12:43.477Z,4.93
2019-02-08T03:15:13.681Z,5.10
2019-02-08T03:17:42.650Z,5.23
2019-02-08T03:20:14.793Z,4.93
2019-02-08T03:22:43.788Z,5.50
2019-02-08T03:25:21.795Z,5.30
2019-02-08T03:27:51.220Z,5.97
2019-02-08T03:30:25.500Z,6.83
2019-02-08T03:32:54.483Z,6.70
2019-02-08T03:35:24.778Z,8.23
2019-02-08T03:37:53.975Z,7.93
2019-02-08T03:40:25.220Z,8.70
2019-02-08T03:42:55.019Z,9.33
2019-02-08T03:45:26.332Z,10.60
2019-02-08T03:47:58.362Z,10.03
2019-02-08T03:50:27.669Z,10.60
2019-02-08T03:52:56.662Z,11.33
2019-02-08T03:55:25.635Z,10.17
2019-02-08T03:57:54.527Z,10.73
2019-02-08T04:00:34.547Z,11.23
2019-02-08T04:03:05.109Z,12.13
2019-02-08T04:05:36.335Z,11.17
2019-02-08T04:08:05.497Z,12.80
2019-02-08T04:10:34.402Z,12.33
2019-02-08T04:13:04.585Z,13.20
2019-02-08T04:15:33.586Z,12.43
2019-02-08T04:18:09.783Z,11.63
2019-02-08T04:20:38.714Z,13.43
2019-02-08T04:23:07.981Z,13.13
2019-02-08T04:25:37.777Z,12.60
2019-02-08T04:28:06.675Z,12.20
2019-02-08T04:30:38.827Z,13.70
2019-02-08T04:33:08.173Z,12.63
2019-02-08T04:35:38.712Z,12.70
2019-02-08T04:38:07.662Z,13.07
2019-02-08T04:40:40.150Z,13.83
2019-02-08T04:43:09.337Z,12.87
2019-02-08T04:45:38.277Z,14.10
2019-02-08T04:48:07.457Z,15.23
2019-02-08T04:50:36.774Z,15.10
2019-02-08T04:53:05.700Z,13.60
2019-02-08T04:55:35.020Z,14.23
2019-02-08T04:58:04.341Z,13.63
2019-02-08T05:00:34.966Z,12.87
2019-02-08T05:03:04.683Z,11.57
2019-02-08T05:05:34.312Z,10.30
2019-02-08T05:08:03.620Z,9.90
2019-02-08T05:10:33.162Z,10.27
2019-02-08T05:13:02.147Z,9.50
2019-02-08T05:15:31.131Z,10.10
2019-02-08T05:18:00.381Z,10.40
2019-02-08T05:20:29.760Z,10.17
2019-02-08T05:22:58.984Z,10.30
2019-02-08T05:25:28.328Z,10.03
2019-02-08T05:31:50.341Z,9.60
2019-02-08T05:34:22.425Z,10.43
2019-02-08T05:36:51.439Z,9.47
2019-02-08T05:39:20.627Z,9.50
2019-02-08T05:41:49.604Z,8.80
2019-02-08T05:44:18.640Z,9.23
2019-02-08T05:46:48.226Z,8.53
2019-02-08T05:49:17.125Z,8.47
2019-02-08T05:51:48.039Z,8.80
2019-02-08T05:54:18.658Z,8.70
2019-02-08T05:56:48.365Z,9.07
2019-02-08T05:59:17.600Z,9.20
2019-02-08T06:01:46.547Z,9.33
2019-02-08T06:04:15.954Z,8.83
2019-02-08T06:06:44.874Z,9.57
2019-02-08T06:09:15.519Z,8.97
2019-02-08T06:11:44.520Z,10.07
2019-02-08T06:14:14.643Z,9.70
2019-02-08T06:16:43.702Z,9.17
2019-02-08T06:19:13.008Z,8.70
2019-02-08T06:21:43.414Z,9.30
2019-02-08T06:24:12.331Z,9.57
2019-02-08T06:26:41.543Z,8.53
2019-02-08T06:29:10.539Z,9.80
2019-02-08T06:31:42.643Z,9.43
2019-02-08T06:34:13.931Z,10.27
2019-02-08T06:36:43.128Z,9.97
2019-02-08T06:39:12.407Z,9.47
2019-02-08T06:41:41.417Z,9.03
2019-02-08T06:44:11.203Z,8.83
2019-02-08T06:46:40.957Z,8.70
2019-02-08T06:49:13.305Z,8.50
2019-02-08T06:51:42.625Z,9.43
2019-02-08T06:54:19.615Z,9.03
2019-02-08T06:57:13.992Z,8.90
2019-02-08T07:00:05.882Z,9.10
2019-02-08T07:02:47.272Z,8.33
2019-02-08T07:05:55.662Z,7.17
2019-02-08T07:08:46.393Z,7.63
2019-02-08T07:11:27.663Z,8.27
2019-02-08T07:14:24.627Z,7.27
2019-02-08T07:17:05.710Z,7.70
2019-02-08T07:19:54.063Z,6.67
2019-02-08T07:22:51.446Z,6.03
2019-02-08T07:25:36.664Z,7.60
2019-02-08T07:28:21.521Z,8.43
2019-02-08T07:31:18.874Z,7.60
2019-02-08T07:33:58.450Z,7.80
2019-02-08T07:36:58.953Z,8.10
2019-02-08T07:39:49.426Z,8.50
2019-02-08T07:42:43.590Z,8.67
2019-02-08T07:45:31.836Z,10.20
2019-02-08T07:48:19.986Z,9.70
2019-02-08T07:51:07.023Z,9.67
2019-02-08T07:53:46.057Z,10.00
2019-02-08T07:56:23.087Z,9.17
2019-02-08T07:59:17.313Z,9.43
2019-02-08T08:02:05.286Z,10.67
2019-02-08T08:05:02.390Z,10.83
2019-02-08T08:07:41.582Z,10.97
2019-02-08T08:10:17.540Z,11.20
2019-02-08T08:13:08.409Z,10.80
2019-02-08T08:15:52.943Z,11.43
2019-02-08T08:18:30.680Z,10.90
2019-02-08T08:21:29.352Z,10.47
2019-02-08T08:24:23.519Z,9.80
2019-02-08T08:27:09.412Z,8.67
2019-02-08T08:29:47.312Z,9.27
2019-02-08T08:32:23.880Z,8.70
2019-02-08T08:35:14.037Z,8.77
2019-02-08T08:38:14.175Z,7.97
2019-02-08T08:41:36.343Z,8.50
2019-02-08T08:44:58.631Z,7.83
2019-02-08T08:47:59.643Z,7.40
2019-02-08T08:51:23.074Z,7.80
2019-02-08T08:54:11.100Z,8.33
2019-02-08T08:57:01.679Z,7.70
2019-02-08T09:00:15.491Z,7.77
2019-02-08T09:03:06.396Z,7.43
2019-02-08T09:06:08.413Z,6.67
2019-02-08T09:09:12.504Z,6.97
2019-02-08T09:12:06.409Z,7.10
2019-02-08T09:15:08.305Z,6.53
2019-02-08T09:18:08.359Z,6.40
2019-02-08T09:21:13.657Z,7.10
2019-02-08T09:24:09.967Z,6.63
2019-02-08T09:27:13.307Z,6.63
2019-02-08T09:30:27.778Z,5.17
2019-02-08T09:33:33.512Z,5.63
2019-02-08T09:36:39.224Z,6.07
2019-02-08T09:40:16.517Z,4.60
2019-02-08T09:43:22.880Z,5.40
2019-02-08T09:49:46.776Z,4.90
2019-02-08T09:52:59.582Z,5.23
2019-02-08T09:56:12.585Z,5.23
2019-02-08T09:59:19.562Z,4.50
2019-02-08T10:02:25.954Z,5.30
2019-02-08T10:05:53.804Z,4.97
2019-02-08T10:09:08.730Z,3.90
2019-02-08T10:12:27.994Z,5.27
2019-02-08T10:15:37.336Z,4.87
2019-02-08T10:18:48.521Z,5.13
2019-02-08T10:22:01.573Z,4.93
2019-02-08T10:24:59.583Z,5.03
2019-02-08T10:27:54.274Z,5.03
2019-02-08T10:31:06.244Z,5.00
2019-02-08T10:34:30.757Z,5.20
2019-02-08T10:37:35.619Z,5.30
2019-02-08T10:40:43.664Z,4.70
2019-02-08T10:43:44.572Z,5.03
2019-02-08T10:46:53.686Z,5.40
2019-02-08T10:50:13.147Z,4.77
2019-02-08T10:53:18.115Z,5.70
2019-02-08T10:56:15.017Z,5.27
2019-02-08T10:59:28.909Z,5.20
2019-02-08T11:02:24.616Z,5.03
2019-02-08T11:05:29.706Z,4.87
2019-02-08T11:11:39.104Z,4.30
2019-02-08T11:15:04.308Z,5.07
2019-02-08T11:18:20.623Z,4.13
2019-02-08T11:20:50.006Z,4.60
2019-02-08T11:23:22.443Z,4.93
2019-02-08T11:25:51.469Z,4.90
2019-02-08T11:28:20.384Z,4.70
2019-02-08T11:30:49.371Z,4.53
2019-02-08T11:33:18.555Z,4.20
2019-02-08T11:35:47.482Z,5.07
2019-02-08T11:38:16.441Z,4.50
2019-02-08T11:40:50.474Z,4.70
2019-02-08T11:43:20.292Z,4.20
2019-02-08T11:45:49.811Z,4.40
2019-02-08T11:48:18.889Z,3.80
2019-02-08T11:50:48.773Z,4.50
2019-02-08T11:53:18.065Z,3.83
2019-02-08T11:55:47.128Z,4.03
2019-02-08T11:58:17.889Z,3.60
2019-02-08T12:00:50.740Z,3.87
2019-02-08T12:03:20.336Z,2.90
2019-02-08T12:05:51.381Z,3.57
2019-02-08T12:08:20.476Z,3.07
2019-02-08T12:10:49.414Z,3.83
2019-02-08T12:13:19.104Z,3.10
2019-02-08T12:15:48.339Z,3.10
2019-02-08T12:18:18.647Z,3.00
2019-02-08T12:20:47.663Z,3.10
2019-02-08T12:23:16.624Z,3.13
2019-02-08T12:25:46.427Z,2.60
2019-02-08T12:28:15.835Z,3.30
2019-02-08T12:30:44.996Z,3.47
2019-02-08T12:33:13.972Z,2.97
2019-02-08T12:35:43.013Z,2.83
2019-02-08T12:38:12.241Z,3.43
2019-02-08T12:40:41.589Z,3.03
2019-02-08T12:43:10.902Z,3.10
2019-02-08T12:45:39.990Z,3.10
2019-02-08T12:48:15.770Z,3.27
2019-02-08T12:51:14.650Z,2.83
2019-02-08T12:53:44.417Z,2.20
2019-02-08T12:56:16.795Z,2.53
2019-02-08T12:58:46.150Z,3.07
2019-02-08T13:01:15.737Z,2.77
2019-02-08T13:03:45.295Z,2.40
2019-02-08T13:06:14.623Z,2.73
2019-02-08T13:08:44.294Z,2.70
2019-02-08T13:11:13.204Z,2.10
2019-02-08T13:13:42.475Z,2.30
2019-02-08T13:16:14.511Z,2.00
2019-02-08T13:18:44.768Z,2.20
2019-02-08T13:21:44.190Z,2.10
2019-02-08T13:24:13.521Z,1.83
2019-02-08T13:26:43.345Z,2.17
2019-02-08T13:29:12.456Z,2.53
2019-02-08T13:31:41.431Z,2.30
2019-02-08T13:34:12.649Z,2.37
2019-02-08T13:36:42.205Z,2.53
2019-02-08T13:39:11.286Z,2.47
2019-02-08T13:41:43.385Z,2.60
2019-02-08T13:44:13.033Z,2.23
2019-02-08T13:46:42.369Z,2.60
2019-02-08T13:49:11.959Z,2.20
2019-02-08T13:51:41.481Z,1.80
2019-02-08T13:54:10.620Z,2.33
2019-02-08T13:56:39.667Z,2.23
2019-02-08T13:59:09.698Z,2.43
2019-02-08T14:01:44.101Z,1.87
2019-02-08T14:04:13.018Z,2.20
2019-02-08T14:06:41.974Z,1.47
2019-02-08T14:09:10.993Z,1.90
2019-02-08T14:11:40.023Z,2.10
2019-02-08T14:14:09.360Z,1.97
2019-02-08T14:16:39.179Z,1.90
2019-02-08T14:19:10.584Z,1.93
2019-02-08T14:22:09.812Z,2.27
2019-02-08T14:24:39.037Z,1.67
2019-02-08T14:27:08.948Z,2.40
2019-02-08T14:29:38.027Z,1.77
2019-02-08T14:32:10.824Z,2.17
2019-02-08T14:34:43.866Z,2.10
2019-02-08T14:37:13.397Z,2.00
2019-02-08T14:39:45.566Z,2.20
2019-02-08T14:42:15.231Z,2.47
2019-02-08T14:44:45.758Z,2.00
2019-02-08T14:47:15.420Z,1.90
2019-02-08T14:49:45.715Z,2.10
2019-02-08T14:52:18.454Z,1.80
2019-02-08T14:54:51.647Z,1.87
2019-02-08T14:57:20.566Z,1.60
2019-02-08T14:59:56.218Z,1.47
2019-02-08T15:02:25.606Z,2.17
2019-02-08T15:04:54.643Z,2.07
2019-02-08T15:07:23.698Z,1.90
2019-02-08T15:09:53.004Z,1.90
2019-02-08T15:12:22.415Z,1.73
2019-02-08T15:14:54.904Z,1.60
2019-02-08T15:17:26.076Z,2.00
2019-02-08T15:19:57.660Z,1.60
2019-02-08T15:22:26.752Z,1.57
2019-02-08T15:24:56.184Z,1.30
2019-02-08T15:27:28.336Z,1.70
2019-02-08T15:29:57.408Z,1.80
2019-02-08T15:32:26.590Z,1.83
2019-02-08T15:34:55.889Z,1.90
2019-02-08T15:37:24.888Z,1.73
2019-02-08T15:39:54.569Z,1.77
2019-02-08T15:42:23.489Z,1.87
2019-02-08T15:44:52.822Z,1.67
2019-02-08T15:47:21.916Z,1.80
2019-02-08T15:49:51.036Z,1.87
2019-02-08T15:52:21.049Z,1.70
2019-02-08T15:54:51.226Z,1.80
2019-02-08T15:57:20.574Z,1.83
2019-02-08T15:59:49.617Z,1.83
2019-02-08T16:02:19.426Z,1.87
2019-02-08T16:04:48.835Z,1.70
2019-02-08T16:07:17.879Z,2.20
2019-02-08T16:09:47.215Z,1.73
2019-02-08T16:12:16.277Z,2.27
2019-02-08T16:17:22.264Z,2.10
2019-02-08T16:19:51.413Z,1.97
2019-02-08T16:22:21.311Z,1.70
2019-02-08T16:24:50.286Z,1.60
2019-02-08T16:27:19.341Z,1.60
2019-02-08T16:29:48.369Z,1.60
2019-02-08T16:32:17.472Z,1.80
2019-02-08T16:34:46.712Z,2.03
2019-02-08T16:37:16.193Z,2.17
2019-02-08T16:39:48.472Z,1.60
2019-02-08T16:42:18.133Z,1.60
2019-02-08T16:44:47.842Z,2.23
2019-02-08T16:47:16.867Z,1.83
2019-02-08T16:49:52.364Z,1.83
2019-02-08T16:52:21.362Z,1.90
2019-02-08T16:54:50.518Z,1.87
2019-02-08T16:57:19.881Z,2.37
2019-02-08T16:59:49.070Z,1.67
2019-02-08T17:02:25.445Z,1.90
2019-02-08T17:04:54.856Z,1.80
2019-02-08T17:07:27.034Z,2.03
2019-02-08T17:09:56.022Z,1.90
2019-02-08T17:12:25.152Z,1.70
2019-02-08T17:14:55.805Z,1.90
2019-02-08T17:17:25.243Z,2.40
2019-02-08T17:19:54.356Z,1.70
2019-02-08T17:22:26.390Z,1.70
2019-02-08T17:24:55.542Z,1.63
2019-02-08T17:27:24.906Z,1.80
2019-02-08T17:29:54.113Z,1.70
2019-02-08T17:32:23.275Z,1.63
2019-02-08T17:34:53.159Z,1.80
2019-02-08T17:39:57.086Z,1.60
2019-02-08T17:42:26.617Z,1.90
2019-02-08T17:44:56.033Z,1.57
2019-02-08T17:47:26.223Z,1.97
2019-02-08T17:49:55.201Z,1.90
2019-02-08T17:52:24.395Z,2.40
2019-02-08T17:54:56.431Z,1.90
2019-02-08T17:57:25.592Z,1.90
2019-02-08T17:59:54.610Z,2.03
2019-02-08T18:02:23.756Z,2.60
2019-02-08T18:04:54.541Z,1.90
2019-02-08T18:07:23.504Z,2.07
2019-02-08T18:09:52.490Z,2.20
2019-02-08T18:12:21.515Z,2.07
2019-02-08T18:17:24.912Z,2.33
2019-02-08T18:19:53.968Z,2.10
2019-02-08T18:22:23.561Z,2.80
2019-02-08T18:24:52.614Z,2.37
2019-02-08T18:27:25.627Z,3.20
2019-02-08T18:29:54.733Z,2.33
2019-02-08T18:32:23.945Z,2.40
2019-02-08T18:34:53.613Z,2.93
2019-02-08T18:37:23.050Z,2.90
2019-02-08T18:39:54.556Z,2.63
2019-02-08T18:42:23.601Z,2.70
2019-02-08T18:44:52.653Z,2.60
2019-02-08T18:47:22.076Z,1.80
2019-02-08T18:49:52.693Z,2.10
2019-02-08T18:52:22.182Z,2.17
2019-02-08T18:54:51.394Z,2.03
2019-02-08T18:57:23.564Z,1.87
2019-02-08T18:59:52.906Z,2.10
2019-02-08T19:02:22.126Z,2.00
2019-02-08T19:04:51.470Z,1.60
2019-02-08T19:07:20.391Z,1.90
2019-02-08T19:09:51.436Z,2.20
2019-02-08T19:12:20.706Z,2.03
2019-02-08T19:14:49.667Z,2.07
2019-02-08T19:17:18.900Z,2.00
2019-02-08T19:19:47.936Z,2.27
2019-02-08T19:22:54.878Z,2.50
2019-02-08T19:28:08.961Z,2.30
2019-02-08T19:30:39.048Z,2.30
2019-02-08T19:33:08.422Z,1.77
2019-02-08T19:35:38.090Z,2.80
2019-02-08T19:38:07.591Z,2.33
2019-02-08T19:40:38.690Z,2.37
2019-02-08T19:43:08.071Z,2.57
2019-02-08T19:45:37.109Z,2.27
2019-02-08T19:48:07.887Z,2.73
2019-02-08T19:50:40.338Z,2.40
2019-02-08T19:53:10.907Z,2.70
2019-02-08T19:55:40.674Z,2.27
2019-02-08T19:58:15.639Z,2.30
2019-02-08T20:00:51.490Z,2.20
2019-02-08T20:03:23.853Z,2.47
2019-02-08T20:05:53.253Z,2.60
2019-02-08T20:08:24.157Z,2.50
2019-02-08T20:10:53.229Z,2.53
2019-02-08T20:13:23.762Z,2.30
2019-02-08T20:15:54.401Z,2.80
2019-02-08T20:18:24.215Z,2.07
2019-02-08T20:20:53.556Z,2.47
2019-02-08T20:23:22.940Z,2.90
2019-02-08T20:25:51.957Z,2.83
2019-02-08T20:28:21.021Z,2.57
2019-02-08T20:30:50.323Z,2.10
2019-02-08T20:33:19.401Z,2.30
2019-02-08T20:35:48.419Z,1.80
2019-02-08T20:38:21.507Z,2.30
2019-02-08T20:40:52.317Z,2.40
2019-02-08T20:45:57.634Z,3.00
2019-02-08T20:48:26.905Z,2.37
2019-02-08T20:50:57.622Z,2.37
2019-02-08T20:53:26.621Z,2.37
2019-02-08T20:55:55.699Z,2.70
2019-02-08T20:58:25.117Z,2.70
2019-02-08T21:00:54.387Z,2.33
2019-02-08T21:03:24.516Z,2.30
2019-02-08T21:05:53.567Z,2.50
2019-02-08T21:08:22.704Z,2.20
2019-02-08T21:10:51.927Z,2.70
2019-02-08T21:13:21.345Z,2.30
2019-02-08T21:15:50.268Z,2.20
2019-02-08T21:18:19.228Z,2.20
2019-02-08T21:20:48.789Z,2.10
2019-02-08T21:23:18.649Z,2.07
2019-02-08T21:25:51.770Z,2.00
2019-02-08T21:28:18.568Z,1.80
2019-02-08T21:30:47.617Z,2.73
2019-02-08T21:33:16.987Z,2.60
2019-02-08T21:35:46.130Z,1.87
2019-02-08T21:38:15.189Z,2.20
2019-02-08T21:40:44.179Z,2.20
2019-02-08T21:43:14.299Z,2.30
2019-02-08T21:45:45.359Z,2.43
2019-02-08T21:48:14.595Z,2.20
2019-02-08T21:50:43.588Z,2.33
2019-02-08T21:53:12.606Z,2.10
2019-02-08T21:55:41.775Z,2.57
2019-02-08T21:58:14.190Z,2.77
2019-02-08T22:00:44.410Z,2.33
2019-02-08T22:03:20.426Z,2.30
2019-02-08T22:05:56.409Z,2.93
2019-02-08T22:08:25.378Z,2.00
2019-02-08T22:10:54.432Z,2.83
2019-02-08T22:13:23.459Z,2.80
2019-02-08T22:15:52.489Z,2.50
2019-02-08T22:18:21.547Z,2.37
2019-02-08T22:20:51.801Z,2.27
2019-02-08T22:23:24.232Z,2.10
2019-02-08T22:25:53.600Z,2.10
2019-02-08T22:28:23.638Z,1.77
2019-02-08T22:30:53.302Z,2.10
2019-02-08T22:33:22.350Z,2.03
2019-02-08T22:35:51.349Z,2.00
2019-02-08T22:38:20.638Z,1.70
2019-02-08T22:40:50.897Z,2.10
2019-02-08T22:43:19.998Z,2.10
2019-02-08T22:45:49.317Z,1.97
2019-02-08T22:48:21.715Z,2.07
2019-02-08T22:50:50.817Z,2.00
2019-02-08T22:53:24.069Z,2.13
2019-02-08T22:55:53.307Z,2.17
2019-02-08T22:58:25.530Z,2.17
2019-02-08T23:01:38.759Z,1.93
2019-02-08T23:04:08.625Z,2.10
2019-02-08T23:06:44.559Z,2.67
2019-02-08T23:09:29.323Z,2.60
2019-02-08T23:12:00.349Z,2.33
2019-02-08T23:14:29.309Z,2.20
2019-02-08T23:16:58.448Z,2.70
2019-02-08T23:19:27.799Z,2.40
2019-02-08T23:22:00.955Z,2.67
2019-02-08T23:24:30.027Z,2.87
2019-02-08T23:26:58.963Z,2.80
2019-02-08T23:29:30.121Z,2.67
2019-02-08T23:31:58.922Z,3.17
2019-02-08T23:34:27.908Z,3.07
2019-02-08T23:37:26.107Z,3.63
2019-02-08T23:39:55.270Z,3.27
2019-02-08T23:42:24.676Z,3.20
2019-02-08T23:44:53.590Z,3.23
2019-02-08T23:47:22.664Z,2.70
2019-02-08T23:49:51.911Z,2.77
2019-02-08T23:52:33.114Z,2.87
2019-02-08T23:55:02.109Z,3.00
2019-02-08T23:57:31.495Z,2.57
